• Join FlightAware (Why Join?)
  • Login
  • US Flag 
08:15AM EDT


 

Airport Tracker/Info


-or-


 

Live Flight TrackerFlight Track Log ✈ ASQ5678 ✈ 15-Aug-2013 ✈ KIAH - KLFT

Flight Track Log - Related Links

Times and Time Zones

All times are in EDT time to prevent confusion due to time zone crossing. See the ASQ5678 flight status page for this flight to view local times or setup timezone preferences in your user account.

Time Position Orientation Groundspeed Altitude Reporting Facility
EDT Latitude Longitude Course Direction KTS MPH feet Rate Location/Type
02:04PM 29.9639 -95.3433 90° East 167 192 600  Level Houston Center
02:06PM 29.9103 -95.2753 132° Southeast 220 253 3,100 1,500 Climbing Houston Center
02:07PM 29.8658 -95.2153 130° Southeast 278 320 4,000 1,740 Climbing Houston Center
02:08PM 29.8183 -95.1319 123° Southeast 284 327 6,300 2,160 Climbing Houston Center
02:09PM 29.9834 -94.8065 90° East  Level FlightAware Approximate
02:09PM 29.8094 -95.0392 96° East 286 329 8,700  Level Houston Center
02:10PM 29.9834 -94.7011 90° East  Level FlightAware Approximate
02:10PM 29.8325 -94.9472 74° East 295 339 10,700  Level Houston Center
02:11PM 29.8536 -94.8603 74° East 323 372 12,100 1,440 Climbing Houston Center
02:12PM 29.8883 -94.7256 73° East 332 382 14,100 1,380 Climbing Houston Center
02:13PM 29.9156 -94.6175 74° East 345 397 15,500 1,200 Climbing Houston Center
02:14PM 29.9444 -94.5072 73° East 355 409 16,600 1,380 Climbing Houston Center
02:15PM 29.9778 -94.3803 73° East 358 412 18,400 1,200 Climbing Houston Center
02:16PM 30.0036 -94.2697 75° East 356 410 19,100 720 Climbing Houston Center
02:17PM 30.0172 -94.1472 83° East 376 433 19,900 720 Climbing Houston Center
02:18PM 30.0319 -94.0200 82° East 394 453 20,600 480 Climbing Houston Center
02:19PM 30.0769 -93.8683 71° East 413 475 21,000 180 Climbing Houston Center
02:20PM 30.1183 -93.7328 71° East 434 499 21,000  Level Houston Center
02:21PM 30.1581 -93.6000 71° East 450 518 21,000  Level Houston Center
02:22PM 30.1975 -93.4656 71° East 451 519 21,000 -300 Level Houston Center
02:23PM 30.2486 -93.3039 70° East 451 519 20,500 -1,740 Descending Houston Center
02:24PM 30.2900 -93.1764 69° East 440 506 17,500 -2,940 Descending Houston Center
02:25PM 30.3133 -93.0506 78° East 409 471 14,500 -2,940 Descending Houston Center
02:27PM 30.3025 -92.9228 96° East 400 460 11,500 -1,740 Descending Houston Center
02:28PM 30.2892 -92.8000 97° East 390 449 11,000 -480 Descending Houston Center
02:29PM 30.2733 -92.6639 98° East 351 404 10,600 -1,080 Descending Houston Center
02:30PM 30.2622 -92.5653 97° East 323 372 8,800 -2,040 Descending Houston Center
02:31PM 30.2517 -92.4744 98° East 304 350 6,500 -1,980 Descending Houston Center
02:32PM 30.2192 -92.3969 116° Southeast 283 326 4,800 -1,440 Descending Houston Center
02:33PM 30.1772 -92.3272 125° Southeast 273 314 3,600 -1,080 Descending Houston Center
02:34PM 30.1358 -92.2600 125° Southeast 264 304 2,600 -900 Descending Houston Center
02:35PM 30.0881 -92.1797 125° Southeast 259 298 1,800 -420 Descending Houston Center
02:36PM 30.0469 -92.1147 126° Southeast 258 297 1,800  Level Houston Center